Time;durP1;ratioP1;P1;durP2;ratioP2;P2;SDS_P1;SDS_P2;PMS_P1;PMS_P2;Temp;Humidity;BMP_temperature;BMP_pressure;BME280_temperature;BME280_humidity;BME280_pressure;Samples;Min_cycle;Max_cycle;Signal;HPM_P1;HPM_P2
2021/05/28 00:00:07;;;;;;;0.70;0.60;;;8.70;99.90;;;9.25;100.00;-20933.91;5133432;27;20413;-81
2021/05/28 00:02:34;;;;;;;0.70;0.70;;;8.70;99.90;;;9.25;100.00;-20933.91;5133252;27;20941;-82
2021/05/28 00:05:05;;;;;;;0.70;0.60;;;8.80;99.90;;;9.29;100.00;-20935.00;5132576;27;20462;-81
2021/05/28 00:07:33;;;;;;;0.70;0.60;;;8.80;99.90;;;9.22;100.00;-20933.06;5134185;27;20413;-81
2021/05/28 00:10:01;;;;;;;0.70;0.60;;;8.70;99.90;;;9.18;100.00;-20932.09;5131272;27;20472;-81
2021/05/28 00:12:30;;;;;;;0.70;0.60;;;8.70;99.90;;;9.21;100.00;-20932.66;5115501;27;20973;-81
2021/05/28 00:15:05;;;;;;;0.70;0.60;;;8.70;99.90;;;9.26;100.00;-20934.03;5133241;27;20843;-80
2021/05/28 00:17:32;;;;;;;0.70;0.60;;;8.70;99.90;;;9.26;100.00;-20934.03;5133141;27;20462;-81
2021/05/28 00:20:00;;;;;;;0.70;0.60;;;8.70;99.90;;;9.35;100.00;-20936.53;5133330;27;20790;-81
2021/05/28 00:22:28;;;;;;;0.70;0.60;;;8.80;99.90;;;9.39;100.00;-20937.66;5132718;27;20526;-80
2021/05/28 00:24:56;;;;;;;0.70;0.60;;;8.80;99.90;;;9.47;100.00;-20939.84;5128595;27;20545;-81
2021/05/28 00:27:25;;;;;;;0.70;0.70;;;8.90;99.90;;;9.49;100.00;-20940.41;5132817;27;20515;-81
2021/05/28 00:29:52;;;;;;;0.80;0.70;;;8.90;99.90;;;9.49;100.00;-20940.41;5115799;28;20423;-81
2021/05/28 00:32:20;;;;;;;0.60;0.60;;;8.90;99.90;;;9.54;100.00;-20941.66;5129259;28;20446;-81
2021/05/28 00:34:49;;;;;;;0.70;0.60;;;8.90;99.90;;;9.59;100.00;-20943.19;5112434;28;20432;-80
2021/05/28 00:37:18;;;;;;;0.70;0.60;;;9.00;99.90;;;9.59;100.00;-20943.19;5113584;28;20416;-81
2021/05/28 00:39:46;;;;;;;0.70;0.60;;;9.00;99.90;;;9.61;100.00;-20943.75;5125719;28;20462;-81
2021/05/28 00:42:14;;;;;;;0.70;0.60;;;9.00;99.90;;;9.65;100.00;-20944.72;5118348;27;20445;-81
2021/05/28 00:44:43;;;;;;;0.70;0.60;;;9.00;99.90;;;9.67;100.00;-20945.25;5136738;27;20508;-81
2021/05/28 00:47:11;;;;;;;0.70;0.70;;;9.00;99.90;;;9.71;100.00;-20946.22;5137326;27;20431;-81
2021/05/28 00:49:39;;;;;;;0.70;0.70;;;9.10;99.90;;;9.71;100.00;-20946.22;5136255;27;20428;-82
2021/05/28 00:52:08;;;;;;;0.70;0.60;;;9.10;99.90;;;9.70;100.00;-20945.94;5120046;27;20527;-82
2021/05/28 00:54:36;;;;;;;0.70;0.70;;;9.10;99.90;;;9.73;100.00;-20946.78;5138192;27;20443;-80
2021/05/28 00:57:05;;;;;;;0.70;0.60;;;9.10;99.90;;;9.69;100.00;-20945.81;5136372;27;20593;-82
2021/05/28 00:59:38;;;;;;;0.70;0.70;;;9.10;99.90;;;9.70;100.00;-20945.94;5136714;27;20429;-79
2021/05/28 01:02:07;;;;;;;0.70;0.60;;;9.10;99.90;;;9.67;100.00;-20945.41;5130727;27;20433;-79
2021/05/28 01:04:35;;;;;;;0.70;0.70;;;9.10;99.90;;;9.63;100.00;-20944.28;5137219;27;20459;-80
2021/05/28 01:07:02;;;;;;;0.70;0.70;;;9.10;99.90;;;9.66;100.00;-20945.13;5136524;27;20456;-79
2021/05/28 01:09:30;;;;;;;0.70;0.70;;;9.10;99.90;;;9.60;100.00;-20943.31;5137722;27;20444;-80
2021/05/28 01:11:58;;;;;;;0.70;0.60;;;9.10;99.90;;;9.58;100.00;-20942.91;5099577;28;20451;-80
2021/05/28 01:14:26;;;;;;;0.70;0.60;;;9.10;99.90;;;9.63;100.00;-20944.28;5126587;27;20428;-82
2021/05/28 01:16:54;;;;;;;0.70;0.60;;;9.10;99.90;;;9.64;100.00;-20944.56;5117652;27;20766;-79
2021/05/28 01:19:25;;;;;;;0.70;0.60;;;9.10;99.90;;;9.66;100.00;-20945.13;5135364;27;20961;-78
2021/05/28 01:22:02;;;;;;;0.70;0.60;;;9.10;99.90;;;9.68;100.00;-20945.69;5133922;27;20424;-79
2021/05/28 01:24:30;;;;;;;0.70;0.60;;;9.10;99.90;;;9.69;100.00;-20945.81;5134088;27;20456;-78
2021/05/28 01:26:58;;;;;;;0.70;0.60;;;9.10;99.90;;;9.71;100.00;-20946.22;5117216;28;20420;-79
2021/05/28 01:29:26;;;;;;;0.70;0.60;;;9.10;99.90;;;9.72;100.00;-20946.66;5115969;28;20447;-79
2021/05/28 01:31:54;;;;;;;0.70;0.60;;;9.10;99.90;;;9.69;100.00;-20945.81;5116250;27;20926;-81
2021/05/28 01:34:24;;;;;;;0.70;0.67;;;9.10;99.90;;;9.66;100.00;-20945.13;5127848;27;20433;-80
2021/05/28 01:36:52;;;;;;;0.70;0.60;;;9.10;99.90;;;9.63;100.00;-20944.28;5118990;27;20503;-81
2021/05/28 01:39:21;;;;;;;0.70;0.67;;;9.10;99.90;;;9.59;100.00;-20943.19;5115165;27;20498;-80
2021/05/28 01:41:49;;;;;;;0.70;0.60;;;9.00;99.90;;;9.52;100.00;-20941.25;5111795;28;20436;-81
2021/05/28 01:44:17;;;;;;;0.70;0.70;;;9.00;99.90;;;9.47;100.00;-20939.84;5115437;28;20450;-82
2021/05/28 01:46:48;;;;;;;0.70;0.60;;;8.90;99.90;;;9.35;100.00;-20936.53;5115477;28;20949;-81
2021/05/28 01:49:16;;;;;;;1.13;1.03;;;8.80;99.90;;;9.27;100.00;-20934.31;5129150;27;20447;-81
2021/05/28 01:51:51;;;;;;;0.70;0.70;;;8.80;99.90;;;9.10;100.00;-20929.88;5134918;27;20946;-81
2021/05/28 01:54:19;;;;;;;0.70;0.70;;;8.60;99.90;;;8.96;100.00;-20926.00;5118257;27;20453;-81
2021/05/28 01:56:48;;;;;;;0.70;0.60;;;8.50;99.90;;;8.82;100.00;-20922.13;5134374;27;20434;-81
2021/05/28 01:59:23;;;;;;;0.70;0.60;;;8.40;99.90;;;8.66;100.00;-20917.97;5114986;28;20489;-81
2021/05/28 02:01:52;;;;;;;0.70;0.60;;;8.20;99.90;;;8.54;100.00;-20914.63;5115988;28;20428;-80
2021/05/28 02:04:21;;;;;;;0.70;0.60;;;8.20;99.90;;;8.45;100.00;-20912.13;5114914;27;20470;-81
2021/05/28 02:06:52;;;;;;;0.70;0.60;;;8.10;99.90;;;8.37;100.00;-20909.91;5135265;27;20441;-81
2021/05/28 02:09:19;;;;;;;0.70;0.60;;;8.00;99.90;;;8.26;100.00;-20906.88;5134988;27;20453;-81
2021/05/28 02:11:49;;;;;;;0.70;0.60;;;7.90;99.90;;;8.15;100.00;-20903.94;5115440;28;20994;-81
2021/05/28 02:14:17;;;;;;;0.73;0.70;;;7.80;99.90;;;8.01;100.00;-20900.06;5116176;28;20426;-82
2021/05/28 02:16:45;;;;;;;0.70;0.60;;;7.70;99.90;;;7.97;100.00;-20899.09;5114531;28;20441;-83
2021/05/28 02:19:12;;;;;;;0.70;0.67;;;7.60;99.90;;;7.93;100.00;-20897.97;5134503;27;20460;-82
2021/05/28 02:21:40;;;;;;;0.70;0.60;;;7.50;99.90;;;7.81;100.00;-20894.66;5117422;27;20442;-81
2021/05/28 02:24:12;;;;;;;0.70;0.70;;;7.40;99.90;;;7.73;100.00;-20892.72;5133922;27;20473;-79
2021/05/28 02:26:40;;;;;;;0.73;0.70;;;7.30;99.90;;;7.63;100.00;-20889.94;5097861;28;20425;-82
2021/05/28 02:29:08;;;;;;;0.70;0.70;;;7.30;99.90;;;7.54;100.00;-20887.44;5115976;27;20429;-81
2021/05/28 02:31:36;;;;;;;0.70;0.60;;;7.20;99.90;;;7.50;100.00;-20886.47;5136627;27;20468;-82
2021/05/28 02:34:04;;;;;;;0.70;0.60;;;7.10;99.90;;;7.44;100.00;-20884.66;5135766;27;20472;-82
2021/05/28 02:36:32;;;;;;;0.70;0.60;;;7.00;99.90;;;7.32;100.00;-20881.47;5133700;27;20493;-82
2021/05/28 02:39:00;;;;;;;0.70;0.60;;;6.90;99.90;;;7.29;100.00;-20880.63;5134407;27;20488;-81
2021/05/28 02:41:28;;;;;;;0.70;0.60;;;6.90;99.90;;;7.28;100.00;-20880.22;5133493;27;20409;-81
2021/05/28 02:43:55;;;;;;;0.70;0.60;;;6.90;99.90;;;7.25;100.00;-20879.66;5134321;27;20833;-82
2021/05/28 02:46:24;;;;;;;0.70;0.60;;;6.80;99.90;;;7.24;100.00;-20879.38;5134715;27;20517;-82
2021/05/28 02:48:51;;;;;;;0.70;0.60;;;6.80;99.90;;;7.21;100.00;-20878.53;5109455;28;20439;-81
2021/05/28 02:51:20;;;;;;;0.70;0.60;;;6.80;99.90;;;7.21;100.00;-20878.41;5114264;28;20422;-80
2021/05/28 02:53:47;;;;;;;1.00;0.90;;;6.80;99.90;;;7.16;100.00;-20877.16;5130522;27;20524;-80
2021/05/28 02:56:15;;;;;;;0.70;0.70;;;6.80;99.90;;;7.17;100.00;-20877.44;5136052;27;20486;-82
2021/05/28 02:58:42;;;;;;;0.70;0.60;;;6.80;99.90;;;7.15;100.00;-20876.75;5135325;27;20424;-82
2021/05/28 03:01:10;;;;;;;0.70;0.50;;;6.70;99.90;;;7.17;100.00;-20877.44;5133710;27;20995;-82
2021/05/28 03:03:38;;;;;;;0.70;0.60;;;6.80;99.90;;;7.13;100.00;-20876.31;5134196;27;20799;-81
2021/05/28 03:06:06;;;;;;;0.70;0.60;;;6.70;99.90;;;7.05;100.00;-20874.09;5116736;27;20509;-81
2021/05/28 03:08:34;;;;;;;0.70;0.60;;;6.60;99.90;;;6.97;100.00;-20871.88;5134350;27;20861;-81
2021/05/28 03:11:01;;;;;;;0.70;0.60;;;6.50;99.90;;;6.93;100.00;-20870.78;5117167;27;20838;-81
2021/05/28 03:13:30;;;;;;;0.70;0.60;;;6.40;99.90;;;6.98;100.00;-20872.16;5133684;27;20479;-80
2021/05/28 03:15:58;;;;;;;0.70;0.60;;;6.50;99.90;;;7.08;100.00;-20874.94;5116443;27;20437;-81
2021/05/28 03:18:34;;;;;;;0.70;0.60;;;6.50;99.90;;;7.20;100.00;-20878.13;5113948;27;20947;-81
2021/05/28 03:22:31;;;;;;;0.70;0.60;;;6.60;99.90;;;7.30;100.00;-20880.78;5134089;27;20432;-81
2021/05/28 03:23:55;;;;;;;0.70;0.53;;;6.70;99.90;;;7.50;100.00;-20886.31;5121077;27;20481;-81
2021/05/28 03:26:25;;;;;;;0.70;0.60;;;6.90;99.90;;;7.59;100.00;-20888.81;5117153;27;20471;-81
2021/05/28 03:28:55;;;;;;;0.70;0.60;;;7.10;99.90;;;7.67;100.00;-20890.91;5130939;27;20528;-81
2021/05/28 03:31:24;;;;;;;0.70;0.60;;;7.10;99.90;;;7.69;100.00;-20891.47;5133380;27;20463;-81
2021/05/28 03:33:52;;;;;;;0.70;0.60;;;7.20;99.90;;;7.68;100.00;-20891.31;5123901;27;20841;-81
2021/05/28 03:36:21;;;;;;;0.70;0.60;;;7.20;99.90;;;7.54;100.00;-20887.44;5116683;27;20433;-81
2021/05/28 03:38:49;;;;;;;0.70;0.60;;;7.10;99.90;;;7.34;100.00;-20881.88;5135043;27;20539;-81
2021/05/28 03:41:16;;;;;;;0.70;0.60;;;6.90;99.90;;;7.26;100.00;-20879.81;5132940;27;20479;-81
2021/05/28 03:43:44;;;;;;;0.70;0.60;;;6.80;99.90;;;7.19;100.00;-20878.00;5096686;28;20437;-81
2021/05/28 03:46:11;;;;;;;0.70;0.60;;;6.70;99.90;;;7.12;100.00;-20876.06;5113094;28;20533;-81
2021/05/28 03:48:39;;;;;;;0.70;0.60;;;6.60;99.90;;;7.03;100.00;-20873.53;5095476;28;20477;-81
2021/05/28 03:51:06;;;;;;;0.70;0.50;;;6.50;99.90;;;7.03;100.00;-20873.53;5128229;27;20782;-81
2021/05/28 03:53:35;;;;;;;0.70;0.60;;;6.50;99.90;;;7.07;100.00;-20874.66;5133744;27;20442;-81
2021/05/28 03:56:03;;;;;;;0.70;0.60;;;6.60;99.90;;;7.10;100.00;-20875.50;5134811;27;20427;-80
2021/05/28 03:58:31;;;;;;;0.70;0.50;;;6.70;99.90;;;7.11;100.00;-20875.78;5134589;27;20427;-81
2021/05/28 04:00:59;;;;;;;0.70;0.60;;;6.60;99.90;;;7.07;100.00;-20874.66;5116422;27;20920;-81
2021/05/28 04:03:29;;;;;;;0.70;0.60;;;6.60;99.90;;;7.00;100.00;-20872.72;5133787;27;20447;-80
2021/05/28 04:05:57;;;;;;;0.70;0.60;;;6.50;99.90;;;6.97;100.00;-20871.88;5114824;28;20953;-81
2021/05/28 04:08:26;;;;;;;0.70;0.50;;;6.40;99.90;;;6.96;100.00;-20871.75;5134018;27;20503;-81
2021/05/28 04:10:54;;;;;;;0.70;0.60;;;6.40;99.90;;;6.97;100.00;-20871.88;5116219;27;20979;-81
2021/05/28 04:13:28;;;;;;;0.70;0.60;;;6.40;99.90;;;6.95;100.00;-20871.31;5134542;27;20807;-80
2021/05/28 04:15:57;;;;;;;0.70;0.60;;;6.40;99.90;;;6.95;100.00;-20871.31;5133617;27;20470;-81
2021/05/28 04:18:25;;;;;;;0.70;0.70;;;6.40;99.90;;;6.94;100.00;-20871.19;5134486;27;20771;-81
2021/05/28 04:20:53;;;;;;;0.70;0.60;;;6.40;99.90;;;6.97;100.00;-20871.88;5133263;27;20987;-80
2021/05/28 04:23:22;;;;;;;0.70;0.60;;;6.40;99.90;;;7.04;100.00;-20873.81;5111277;28;21141;-81
2021/05/28 04:26:12;;;;;;;0.70;0.60;;;6.50;99.90;;;7.13;100.00;-20876.31;5113917;28;20680;-80
2021/05/28 04:28:39;;;;;;;0.70;0.50;;;6.50;99.90;;;7.24;100.00;-20879.38;5129819;27;20486;-80
2021/05/28 04:31:08;;;;;;;0.70;0.50;;;6.70;99.90;;;7.26;100.00;-20879.81;5113275;28;20436;-80
2021/05/28 04:33:36;;;;;;;0.70;0.60;;;6.70;99.90;;;7.29;100.00;-20880.50;5123224;28;20924;-80
2021/05/28 04:36:04;;;;;;;0.70;0.60;;;6.70;99.90;;;7.27;100.00;-20880.06;5131674;28;20409;-81
2021/05/28 04:38:32;;;;;;;0.70;0.60;;;6.70;99.90;;;7.33;100.00;-20881.75;5128592;28;20468;-81
2021/05/28 04:41:00;;;;;;;0.70;0.60;;;6.70;99.90;;;7.45;100.00;-20884.94;5113670;28;20444;-80
2021/05/28 04:43:28;;;;;;;0.70;0.60;;;6.90;99.90;;;7.54;100.00;-20887.44;5132760;27;20544;-80
2021/05/28 04:45:57;;;;;;;0.70;0.60;;;7.00;99.90;;;7.60;100.00;-20889.09;5115398;28;21044;-81
2021/05/28 04:48:24;;;;;;;0.70;0.50;;;7.10;99.90;;;7.66;100.00;-20890.78;5132592;28;20464;-81
2021/05/28 04:50:52;;;;;;;0.70;0.60;;;7.10;99.90;;;7.73;100.00;-20892.56;5132965;28;20435;-80
2021/05/28 04:53:20;;;;;;;0.70;0.60;;;7.20;99.90;;;7.87;100.00;-20896.31;5132632;28;20531;-80
2021/05/28 04:55:47;;;;;;;0.70;0.50;;;7.30;99.90;;;8.02;100.00;-20900.47;5132955;28;20416;-80
2021/05/28 04:58:15;;;;;;;1.13;1.03;;;7.50;99.90;;;8.09;100.00;-20902.41;5115228;28;21048;-80
2021/05/28 05:00:45;;;;;;;0.70;0.53;;;7.50;99.90;;;8.14;100.00;-20903.81;5148079;27;20446;-80
2021/05/28 05:03:12;;;;;;;0.70;0.60;;;7.60;99.90;;;8.21;100.00;-20905.75;5128870;28;20445;-81
2021/05/28 05:05:40;;;;;;;0.70;0.60;;;7.60;99.90;;;8.34;100.00;-20909.22;5112250;28;20511;-80
2021/05/28 05:08:07;;;;;;;0.70;0.60;;;7.70;99.90;;;8.38;100.00;-20910.34;5107930;28;20508;-80
2021/05/28 05:10:35;;;;;;;0.70;0.63;;;7.80;99.90;;;8.43;100.00;-20911.59;5133763;27;20453;-80
2021/05/28 05:13:10;;;;;;;0.70;0.60;;;7.80;99.90;;;8.46;100.00;-20912.56;5115267;28;20478;-81
2021/05/28 05:15:39;;;;;;;0.70;0.60;;;7.80;99.90;;;8.48;100.00;-20912.97;5132035;28;20420;-80
2021/05/28 05:18:08;;;;;;;0.70;0.70;;;7.80;99.90;;;8.60;100.00;-20916.28;5115957;28;20447;-80
2021/05/28 05:20:36;;;;;;;0.70;0.70;;;7.90;99.90;;;8.69;100.00;-20918.66;5115401;28;20850;-81
2021/05/28 05:23:05;;;;;;;0.70;0.70;;;8.00;99.90;;;8.87;100.00;-20923.50;5133065;27;20438;-81
2021/05/28 05:25:33;;;;;;;0.70;0.60;;;8.20;99.90;;;9.03;100.00;-20927.94;5131677;28;20553;-81
2021/05/28 05:28:02;;;;;;;0.70;0.60;;;8.30;99.90;;;9.12;100.00;-20930.44;5118060;27;20467;-81
2021/05/28 05:30:30;;;;;;;0.70;0.70;;;8.40;99.90;;;9.16;100.00;-20931.53;5137973;27;20429;-81
2021/05/28 05:33:02;;;;;;;0.70;0.63;;;8.40;99.90;;;9.24;100.00;-20933.47;5115886;28;20446;-82
2021/05/28 05:35:31;;;;;;;0.70;0.60;;;8.40;99.90;;;9.29;100.00;-20934.88;5116719;28;20810;-81
2021/05/28 05:37:59;;;;;;;0.70;0.60;;;8.50;99.90;;;9.29;100.00;-20934.88;5115390;28;20458;-82
2021/05/28 05:40:27;;;;;;;0.70;0.60;;;8.50;99.90;;;9.39;100.00;-20937.78;5106829;28;20990;-82
2021/05/28 05:42:55;;;;;;;0.70;0.60;;;8.60;99.90;;;9.63;100.00;-20944.28;5125015;27;20448;-81
2021/05/28 05:45:22;;;;;;;0.70;0.60;;;8.80;99.90;;;9.76;100.00;-20947.63;5116706;28;20469;-82
2021/05/28 05:47:51;;;;;;;0.70;0.60;;;8.90;99.90;;;9.90;100.00;-20951.50;5116554;27;20451;-82
2021/05/28 05:50:18;;;;;;;0.70;0.50;;;9.00;99.90;;;9.99;100.00;-20953.97;5115359;28;20444;-82
2021/05/28 05:52:47;;;;;;;0.70;0.60;;;9.00;99.90;;;10.08;100.00;-20956.47;5116209;27;20460;-82
2021/05/28 05:55:16;;;;;;;0.70;0.60;;;9.10;99.90;;;10.16;100.00;-20958.69;5137160;27;20481;-81
2021/05/28 05:57:43;;;;;;;0.70;0.60;;;9.20;99.90;;;10.29;100.00;-20962.00;5118728;27;20844;-81
2021/05/28 06:00:13;;;;;;;0.70;0.60;;;9.30;99.90;;;10.51;100.00;-20968.09;5136532;27;20440;-80
2021/05/28 06:02:41;;;;;;;0.70;0.60;;;9.30;99.90;;;10.43;100.00;-20965.75;5124354;27;20441;-82
2021/05/28 06:05:12;;;;;;;0.70;0.60;;;9.40;99.90;;;10.71;100.00;-20973.34;5116515;28;20501;-80
2021/05/28 06:07:43;;;;;;;0.70;0.60;;;9.50;99.90;;;10.58;100.00;-20970.03;5127776;27;20818;-81
2021/05/28 06:10:14;;;;;;;0.70;0.60;;;9.60;99.90;;;10.87;100.00;-20977.78;5136229;27;20429;-80
2021/05/28 06:12:41;;;;;;;0.70;0.60;;;9.80;99.90;;;11.16;100.00;-20985.66;5136919;27;20461;-82
2021/05/28 06:15:10;;;;;;;0.70;0.60;;;9.90;99.90;;;11.11;100.00;-20984.28;5135184;27;20420;-82
2021/05/28 06:17:39;;;;;;;0.70;0.63;;;10.00;99.90;;;11.21;100.00;-20986.91;5116873;27;20476;-80
2021/05/28 06:20:08;;;;;;;0.70;0.60;;;10.10;99.90;;;11.10;100.00;-20984.16;5118372;27;20428;-82
2021/05/28 06:22:36;;;;;;;0.70;0.60;;;10.20;99.90;;;11.22;100.00;-20987.19;5118079;27;20440;-80
2021/05/28 06:25:07;;;;;;;0.80;0.80;;;10.30;99.90;;;11.46;100.00;-20993.81;5131648;27;20437;-82
2021/05/28 06:27:35;;;;;;;0.70;0.60;;;10.40;99.90;;;11.45;100.00;-20993.41;5128422;27;20442;-81
2021/05/28 06:30:05;;;;;;;0.70;0.70;;;10.50;99.90;;;11.83;100.00;-21003.75;5135327;27;20496;-81
2021/05/28 06:32:33;;;;;;;0.70;0.60;;;10.70;99.90;;;12.04;100.00;-21009.44;5116086;27;20796;-81
2021/05/28 06:35:01;;;;;;;1.03;1.00;;;10.80;99.90;;;12.07;100.00;-21010.25;5135051;27;20481;-82
2021/05/28 06:37:28;;;;;;;0.70;0.70;;;10.80;99.90;;;12.21;100.00;-21014.00;5116914;27;20841;-81
2021/05/28 06:39:56;;;;;;;0.70;0.60;;;11.10;99.90;;;12.34;100.00;-21017.56;5134204;27;20433;-81
2021/05/28 06:42:24;;;;;;;0.70;0.70;;;11.20;99.90;;;12.52;100.00;-21022.41;5135044;27;20944;-81
2021/05/28 06:44:52;;;;;;;0.70;0.60;;;11.40;99.90;;;12.78;100.00;-21029.44;5134573;27;20824;-82
2021/05/28 06:47:20;;;;;;;1.00;1.00;;;11.60;99.90;;;12.82;100.00;-21030.53;5134364;27;21058;-81
2021/05/28 06:49:48;;;;;;;0.70;0.70;;;11.60;99.90;;;13.31;100.00;-21043.78;5134900;27;20428;-81
2021/05/28 06:52:17;;;;;;;0.70;0.70;;;11.80;99.90;;;13.49;100.00;-21048.75;5135494;27;20892;-82
2021/05/28 06:54:45;;;;;;;0.80;0.80;;;12.10;99.90;;;13.21;100.00;-21041.03;5151100;27;20460;-79
2021/05/28 06:57:13;;;;;;;0.70;0.60;;;12.40;99.90;;;13.86;100.00;-21058.66;5131301;27;20803;-81
2021/05/28 06:59:40;;;;;;;0.70;0.60;;;12.30;99.90;;;14.01;100.00;-21062.66;5113801;28;20425;-80
2021/05/28 07:02:09;;;;;;;0.70;0.60;;;12.20;99.90;;;13.92;100.00;-21060.31;5099286;27;20505;-81
2021/05/28 07:04:37;;;;;;;0.70;0.70;;;12.10;99.90;;;13.68;100.00;-21053.72;5117079;27;20515;-80
2021/05/28 07:07:05;;;;;;;0.77;0.70;;;12.10;99.90;;;13.86;100.00;-21058.53;5134124;27;20474;-80
2021/05/28 07:09:32;;;;;;;0.70;0.60;;;12.10;99.90;;;13.64;100.00;-21052.63;5134308;27;20464;-80
2021/05/28 07:12:00;;;;;;;0.70;0.70;;;12.10;99.90;;;13.35;100.00;-21044.88;5117351;27;20438;-79
2021/05/28 07:14:28;;;;;;;0.70;0.70;;;12.30;99.90;;;13.31;100.00;-21043.78;5116565;27;20445;-79
2021/05/28 07:16:55;;;;;;;0.80;0.70;;;12.40;99.90;;;13.47;100.00;-21048.06;5134613;27;20462;-79
2021/05/28 07:19:24;;;;;;;0.70;0.60;;;12.10;99.90;;;13.45;100.00;-21047.50;5125332;27;20425;-79
2021/05/28 07:21:52;;;;;;;0.70;0.70;;;12.10;99.90;;;13.32;100.00;-21044.06;5135182;27;20988;-79
2021/05/28 07:24:20;;;;;;;0.70;0.70;;;12.10;99.90;;;13.02;100.00;-21036.06;5134151;27;20486;-79
2021/05/28 07:26:48;;;;;;;0.70;0.60;;;12.10;99.90;;;12.91;100.00;-21032.88;5116714;27;20472;-79
2021/05/28 07:29:16;;;;;;;0.70;0.70;;;12.00;99.90;;;12.83;100.00;-21030.81;5117000;27;20942;-80
2021/05/28 07:31:45;;;;;;;0.70;0.70;;;11.80;99.90;;;12.50;100.00;-21022.00;5131463;27;20435;-79
2021/05/28 07:34:12;;;;;;;0.70;0.60;;;11.60;99.90;;;12.32;100.00;-21017.03;5133883;27;20444;-78
2021/05/28 07:36:41;;;;;;;0.70;0.70;;;11.60;99.90;;;12.58;100.00;-21024.19;5133787;27;20808;-78
2021/05/28 07:39:11;;;;;;;0.70;0.70;;;11.70;99.90;;;12.86;100.00;-21031.50;5134629;27;20497;-79
2021/05/28 07:41:38;;;;;;;0.70;0.70;;;12.00;99.90;;;13.16;100.00;-21039.66;5133935;27;20420;-78
2021/05/28 07:44:06;;;;;;;0.70;0.60;;;12.40;99.90;;;13.92;100.00;-21060.31;5116537;27;20473;-80
2021/05/28 07:46:40;;;;;;;0.70;0.60;;;12.80;99.90;;;14.18;100.00;-21067.22;5131775;27;20458;-80
2021/05/28 07:49:07;;;;;;;0.70;0.70;;;13.10;99.90;;;14.31;100.00;-21070.78;5113097;28;20454;-80
2021/05/28 07:51:35;;;;;;;0.70;0.70;;;13.50;99.90;;;14.49;100.00;-21075.59;5114082;28;20508;-79
2021/05/28 07:54:05;;;;;;;0.70;0.60;;;13.80;99.90;;;14.94;100.00;-21087.84;5113895;28;20446;-78
2021/05/28 07:56:35;;;;;;;0.70;0.70;;;13.90;99.90;;;14.76;100.00;-21082.91;5119664;27;20426;-78
2021/05/28 07:59:03;;;;;;;0.70;0.60;;;13.80;99.90;;;14.63;100.00;-21079.47;5119474;28;20487;-77
2021/05/28 08:01:31;;;;;;;0.70;0.60;;;13.40;99.90;;;14.25;100.00;-21069.28;5134128;27;20500;-76
2021/05/28 08:04:00;;;;;;;0.70;0.60;;;13.30;99.90;;;14.21;100.00;-21068.03;5117760;27;20801;-79
2021/05/28 08:06:28;;;;;;;0.70;0.60;;;13.20;99.90;;;14.35;100.00;-21071.88;5116037;28;20854;-77
2021/05/28 08:08:56;;;;;;;0.70;0.63;;;13.00;99.90;;;13.87;100.00;-21058.94;5116524;27;20469;-79
2021/05/28 08:11:24;;;;;;;0.70;0.70;;;13.00;99.90;;;14.46;100.00;-21074.91;5133835;27;20777;-79
2021/05/28 08:13:52;;;;;;;0.70;0.60;;;13.70;99.90;;;15.30;100.00;-21097.50;5138498;27;20428;-79
2021/05/28 08:16:20;;;;;;;0.70;0.60;;;14.20;99.90;;;16.17;100.00;-21120.84;5120018;27;20498;-79
2021/05/28 08:18:49;;;;;;;0.70;0.60;;;14.80;99.90;;;16.72;100.00;-21135.56;5130818;27;20450;-79
2021/05/28 08:21:17;;;;;;;0.70;0.60;;;15.30;99.90;;;16.74;100.00;-21136.25;5133209;27;20439;-77
2021/05/28 08:23:45;;;;;;;0.70;0.60;;;14.70;99.90;;;16.37;100.00;-21126.22;5131799;27;20471;-79
2021/05/28 08:26:13;;;;;;;0.70;0.60;;;14.40;99.90;;;16.19;100.00;-21121.41;5115918;28;20460;-78
2021/05/28 08:28:42;;;;;;;0.70;0.60;;;14.20;99.90;;;16.17;100.00;-21120.84;5129842;27;20500;-77
2021/05/28 08:31:10;;;;;;;0.80;0.70;;;14.00;99.90;;;15.68;100.00;-21107.66;5115278;28;20421;-77
2021/05/28 08:33:40;;;;;;;0.90;0.90;;;14.00;99.90;;;15.37;100.00;-21099.28;5127508;28;20790;-76
2021/05/28 08:36:07;;;;;;;0.70;0.60;;;14.00;99.90;;;15.65;100.00;-21106.84;5093913;28;20432;-77
2021/05/28 08:38:35;;;;;;;0.70;0.60;;;14.20;99.90;;;16.07;100.00;-21118.25;5110356;28;20453;-77
2021/05/28 08:41:04;;;;;;;0.70;0.70;;;14.40;99.90;;;15.98;100.00;-21115.63;5121554;28;20443;-77
2021/05/28 08:43:32;;;;;;;0.70;0.60;;;14.50;99.90;;;16.04;100.00;-21117.28;5115505;28;20439;-77
2021/05/28 08:46:07;;;;;;;0.80;0.80;;;14.50;99.90;;;16.10;100.00;-21119.06;5133003;28;20422;-76
2021/05/28 08:48:34;;;;;;;0.70;0.70;;;14.40;99.90;;;16.52;100.00;-21130.19;5111927;28;20440;-77
2021/05/28 08:51:03;;;;;;;0.70;0.60;;;14.50;99.90;;;17.11;100.00;-21146.13;5113177;28;20429;-77
2021/05/28 08:53:30;;;;;;;0.70;0.67;;;14.70;99.90;;;16.51;100.00;-21129.91;5112916;28;20412;-74
2021/05/28 08:55:58;;;;;;;0.70;0.60;;;14.80;99.90;;;16.80;100.00;-21137.75;5121783;28;21013;-76
2021/05/28 08:58:28;;;;;;;0.70;0.60;;;14.70;99.90;;;16.33;100.00;-21125.25;5132057;28;20433;-77
2021/05/28 09:00:56;;;;;;;0.70;0.60;;;14.70;99.90;;;16.49;100.00;-21129.38;5132501;27;20746;-77
2021/05/28 09:03:26;;;;;;;0.70;0.60;;;14.60;99.90;;;16.66;100.00;-21134.03;5137431;27;20481;-76
2021/05/28 09:05:57;;;;;;;0.70;0.70;;;14.70;99.90;;;16.69;100.00;-21134.88;5136306;27;20431;-76
2021/05/28 09:08:30;;;;;;;0.80;0.70;;;14.50;99.90;;;16.10;100.00;-21118.94;5133710;27;20453;-76
2021/05/28 09:11:07;;;;;;;0.70;0.60;;;14.50;99.90;;;16.11;100.00;-21119.22;5117612;28;20405;-76
2021/05/28 09:13:42;;;;;;;0.70;0.70;;;14.60;99.90;;;16.46;100.00;-21128.53;5133341;27;20418;-76
2021/05/28 09:16:12;;;;;;;0.77;0.70;;;14.60;99.90;;;16.18;100.00;-21121.13;5136251;27;20435;-75
2021/05/28 09:18:45;;;;;;;0.70;0.60;;;14.70;99.90;;;15.98;100.00;-21115.63;5128602;27;20436;-76
2021/05/28 09:21:18;;;;;;;0.70;0.60;;;14.90;99.90;;;16.33;100.00;-21125.25;5117257;28;20384;-76
2021/05/28 09:23:46;;;;;;;0.70;0.60;;;15.10;99.90;;;17.90;100.00;-21167.38;5132643;27;20490;-75
2021/05/28 09:26:14;;;;;;;0.70;0.60;;;16.30;99.90;;;19.39;100.00;-21207.22;5115405;28;20410;-77
2021/05/28 09:28:44;;;;;;;0.70;0.60;;;17.50;99.90;;;21.45;100.00;-21262.53;5116092;28;20456;-76
2021/05/28 09:31:15;;;;;;;0.70;0.60;;;18.00;99.90;;;22.38;100.00;-21287.19;5115824;28;20409;-76
2021/05/28 09:33:47;;;;;;;0.70;0.50;;;18.10;99.90;;;20.75;100.00;-21243.81;5123102;27;20436;-75
2021/05/28 09:36:19;;;;;;;0.70;0.50;;;18.30;99.90;;;20.52;100.00;-21237.56;5098267;28;20431;-75
2021/05/28 09:39:00;;;;;;;0.70;0.50;;;17.90;99.90;;;20.70;100.00;-21242.47;5098589;28;20223;-75
2021/05/28 09:41:44;;;;;;;0.70;0.50;;;18.30;99.90;;;21.22;100.00;-21256.38;5115957;28;20747;-75
2021/05/28 09:44:17;;;;;;;0.80;0.80;;;19.00;99.90;;;22.78;100.00;-21297.81;5115955;28;20410;-75
2021/05/28 09:47:14;;;;;;;0.70;0.60;;;18.70;99.90;;;22.41;100.00;-21288.13;5116321;27;20449;-75
2021/05/28 09:49:46;;;;;;;0.70;0.50;;;18.90;99.90;;;21.38;100.00;-21260.63;5100621;27;20466;-75
2021/05/28 09:52:17;;;;;;;0.70;0.50;;;19.10;99.90;;;20.70;100.00;-21242.47;5137318;27;20409;-78
2021/05/28 09:54:57;;;;;;;0.70;0.50;;;19.00;99.90;;;20.95;100.00;-21249.00;5119374;27;21056;-76
2021/05/28 09:57:32;;;;;;;0.70;0.50;;;19.30;94.70;;;21.54;100.00;-21264.84;5118907;27;20444;-76
2021/05/28 10:00:06;;;;;;;0.70;0.50;;;19.50;89.10;;;24.17;100.00;-21334.78;5118376;27;20424;-77
2021/05/28 10:02:43;;;;;;;0.70;0.50;;;19.80;78.50;;;23.29;100.00;-21311.41;5137213;27;20425;-76
2021/05/28 10:05:21;;;;;;;0.70;0.50;;;20.50;77.50;;;23.22;100.00;-21309.50;5138762;27;20408;-76
2021/05/28 10:07:50;;;;;;;0.70;0.50;;;20.90;77.40;;;25.85;100.00;-21379.56;5137078;27;20476;-76
2021/05/28 10:10:18;;;;;;;1.17;0.80;;;20.70;67.40;;;24.27;100.00;-21337.63;5138157;27;20428;-76
2021/05/28 10:12:48;;;;;;;0.90;0.80;;;21.10;71.50;;;22.21;100.00;-21282.56;5119716;27;21122;-76
2021/05/28 10:15:16;;;;;;;0.70;0.50;;;20.40;64.80;;;21.63;100.00;-21267.28;5126465;27;20455;-76
2021/05/28 10:17:44;;;;;;;0.70;0.50;;;19.60;66.50;;;20.11;100.00;-21226.50;5108869;27;20444;-76
2021/05/28 10:20:13;;;;;;;0.70;0.50;;;18.80;71.90;;;20.16;100.00;-21228.00;5136673;27;20459;-76